Rockton, Pennsylvania
Current Conditions -  °F | °C
As of 1:54 PM on Thursday 30 Oct 2014 (Local Time) from KFIG Reporting Station
Overcast Overcast  
Wind Chill: 47°   Ceiling: 4100
Heat Index: 49°   Visibility: 10mi
Dew Point: 33°   Wind: 5mph
Humidity: 54%   Direction: 280°W
Pressure: 30.04"   Gusts: NA
Location:  41.08°N, 78.65°W
Report Text: KFIG 301754Z AUTO 28004KT 10SM OVC041 09/01 A3004 RMK AO2 SLP179 T00940006 10100 20056 58008
Loading
Personal Weather Stations






























Interactive Weather Map
Tropical Storm Tracking
New forecast layout! Learn more

10-Day Weather Forecast

Advertisements
Track Severe Weather on mobile